Airfield :
LOGIN :

Register | Disclaimer

   EN    FR    IT 

 










Legend :    VFR   Marginal VFR   IFR   Intensive IFR   Very Intensive IFR
Visi :
Ceiling :
>= 8 km
>= 3000ft
5 to 8 km
1000 to 3000 ft
1500m to 5 km
500 to 1000 ft
800 to 1500m
200 to 500 ft
< 800m
< 200 ft
Symbols :   Thunderstorms  Fog  Heavy snow  Heavy precipitations  Wind > 20 kt
SIGMETs :     Misc.  Thunderstorms  Icing  Turbulence  Mountain Waves  Volcanic Ashes







- Airport Elevation : 1649 ft
- IATA code : HHN


EDFH - Frankfurt-Hahn Rhineland-Palatinate

CURRENT METAR :
  • 190520Z 04008KT 010V080 9999 SCT008 01/M01 Q1016

EXPIRED METARs :
  • 190450Z 05007KT 020V090 9999 SCT009 00/M01 Q1016
  • 190420Z 06009KT 030V110 CAVOK 00/M01 Q1016
  • 190350Z 05007KT 020V100 CAVOK 00/M02 Q1017
  • 190320Z 06008KT 020V120 CAVOK M00/M02 Q1017

TAF TAF EDFH
Valid from the 19 at 06:00 until the 20 at 06:00 UTC


190500Z 1906/2006 06010KT 9999 SCT020
TEMPO 1907/1921 07015G25KT 1500 SHSN BKN005CB
TEMPO 1921/2006 10015G30KT BKN012
No reported NOTAMs for that airfield.
1 SIGMET reported for the Langen FIR (EDGG) :
 
Severe icing
EDGG SIGMET 1 VALID 190330/190600 EDZF
EDGG LANGEN FIR SEV ICE FCST WI N5121 E01030 - N5041 E01042 - N5015 E01018 - N5015 E00845 - N5120 E00848 - N5121 E01030 1500FT/5000FT MOV W 05KT NC=



MET'MAP, your aeronautical weather chart ! - Copyright ORBIFLY December 2007 - Disclaimer

ORBIFLY MET'MAP TEAM :

Programming & Development : Alexandra Zaïnal
Concept & Development : Baudouin d'Aumeries
Co-Development & Prog : Marc-Olivier Méhu
Technical & hardware support : Manuel Goepfert

Contact : metmap@orbifly.com




SOURCES & CREDITS :

   NOAA